<?xml version="1.0" encoding="UTF-8" standalone="no" ?>
<gpx xmlns="http://www.topografix.com/GPX/1/1" xmlns:xsi="http://www.w3.org/2001/XMLSchema-instance" xsi:schemaLocation="http://www.topografix.com/GPX/1/1 http://www.topografix.com/GPX/1/1/gpx.xsd" version="1.1" creator="VisuGPX - https://www.visugpx.com">
  <metadata>
    <name>Neuvicoise 2024</name>
    <desc><![CDATA[Parcours créé sur Trace de Trail]]></desc>
  </metadata>
  <trk>
    <name><![CDATA[Marche La Neuvicoise 2024 sur TraceDeTrail.fr]]></name>
    <extensions>
      <line xmlns="http://www.topografix.com/GPX/gpx_style/0/2">
        <color>00FFFF</color>
        <width>4</width>
      </line>
    </extensions>
    <trkseg>
      <trkpt lat="45.38961" lon="2.29289">
        <ele>590</ele>
        <time>2024-09-13T04:56:23+00:00</time>
      </trkpt>
      <trkpt lat="45.38972" lon="2.29266">
        <ele>590</ele>
        <time>2024-09-13T04:56:26+00:00</time>
      </trkpt>
      <trkpt lat="45.38984" lon="2.29245">
        <ele>590</ele>
        <time>2024-09-13T04:56:29+00:00</time>
      </trkpt>
      <trkpt lat="45.39017" lon="2.29204">
        <ele>597</ele>
        <time>2024-09-13T04:56:32+00:00</time>
      </trkpt>
      <trkpt lat="45.39067" lon="2.29174">
        <ele>596</ele>
        <time>2024-09-13T04:56:35+00:00</time>
      </trkpt>
      <trkpt lat="45.39089" lon="2.29165">
        <ele>597</ele>
        <time>2024-09-13T04:56:38+00:00</time>
      </trkpt>
      <trkpt lat="45.391" lon="2.2909">
        <ele>596</ele>
        <time>2024-09-13T04:56:41+00:00</time>
      </trkpt>
      <trkpt lat="45.39102" lon="2.29058">
        <ele>596</ele>
        <time>2024-09-13T04:56:44+00:00</time>
      </trkpt>
      <trkpt lat="45.39112" lon="2.29023">
        <ele>594</ele>
        <time>2024-09-13T04:56:47+00:00</time>
      </trkpt>
      <trkpt lat="45.39133" lon="2.2899">
        <ele>593</ele>
        <time>2024-09-13T04:56:50+00:00</time>
      </trkpt>
      <trkpt lat="45.39137" lon="2.28964">
        <ele>593</ele>
        <time>2024-09-13T04:56:53+00:00</time>
      </trkpt>
      <trkpt lat="45.39156" lon="2.28927">
        <ele>599</ele>
        <time>2024-09-13T04:56:56+00:00</time>
      </trkpt>
      <trkpt lat="45.39185" lon="2.28889">
        <ele>600</ele>
        <time>2024-09-13T04:56:59+00:00</time>
      </trkpt>
      <trkpt lat="45.39187" lon="2.28853">
        <ele>601</ele>
        <time>2024-09-13T04:57:02+00:00</time>
      </trkpt>
      <trkpt lat="45.39189" lon="2.28814">
        <ele>600</ele>
        <time>2024-09-13T04:57:05+00:00</time>
      </trkpt>
      <trkpt lat="45.39194" lon="2.2877">
        <ele>600</ele>
        <time>2024-09-13T04:57:08+00:00</time>
      </trkpt>
      <trkpt lat="45.39221" lon="2.28744">
        <ele>598</ele>
        <time>2024-09-13T04:57:11+00:00</time>
      </trkpt>
      <trkpt lat="45.39249" lon="2.28737">
        <ele>597</ele>
        <time>2024-09-13T04:57:14+00:00</time>
      </trkpt>
      <trkpt lat="45.39315" lon="2.28723">
        <ele>595</ele>
        <time>2024-09-13T04:57:17+00:00</time>
      </trkpt>
      <trkpt lat="45.39341" lon="2.28708">
        <ele>596</ele>
        <time>2024-09-13T04:57:20+00:00</time>
      </trkpt>
      <trkpt lat="45.39378" lon="2.28687">
        <ele>597</ele>
        <time>2024-09-13T04:57:23+00:00</time>
      </trkpt>
      <trkpt lat="45.39398" lon="2.28657">
        <ele>597</ele>
        <time>2024-09-13T04:57:26+00:00</time>
      </trkpt>
      <trkpt lat="45.39416" lon="2.2863">
        <ele>601</ele>
        <time>2024-09-13T04:57:29+00:00</time>
      </trkpt>
      <trkpt lat="45.39438" lon="2.28595">
        <ele>600</ele>
        <time>2024-09-13T04:57:32+00:00</time>
      </trkpt>
      <trkpt lat="45.39453" lon="2.28565">
        <ele>600</ele>
        <time>2024-09-13T04:57:35+00:00</time>
      </trkpt>
      <trkpt lat="45.39457" lon="2.28529">
        <ele>599</ele>
        <time>2024-09-13T04:57:38+00:00</time>
      </trkpt>
      <trkpt lat="45.39477" lon="2.2846">
        <ele>599</ele>
        <time>2024-09-13T04:57:41+00:00</time>
      </trkpt>
      <trkpt lat="45.39466" lon="2.28435">
        <ele>599</ele>
        <time>2024-09-13T04:57:44+00:00</time>
      </trkpt>
    </trkseg>
  </trk>
</gpx>